sensor_id;sensor_type;location;lat;lon;timestamp;P1;durP1;ratioP1;P2;durP2;ratioP2
55292;SDS011;41157;53.560;10.098;2022-07-22T00:01:44;20.10;;;18.02;;
55292;SDS011;41157;53.560;10.098;2022-07-22T00:04:10;20.88;;;16.92;;
55292;SDS011;41157;53.560;10.098;2022-07-22T00:06:36;20.15;;;17.55;;
55292;SDS011;41157;53.560;10.098;2022-07-22T00:09:02;20.67;;;17.67;;
55292;SDS011;41157;53.560;10.098;2022-07-22T00:11:28;19.65;;;17.55;;
55292;SDS011;41157;53.560;10.098;2022-07-22T00:13:54;18.77;;;16.50;;
55292;SDS011;41157;53.560;10.098;2022-07-22T00:16:20;18.70;;;16.73;;
55292;SDS011;41157;53.560;10.098;2022-07-22T00:18:46;19.70;;;16.20;;
55292;SDS011;41157;53.560;10.098;2022-07-22T00:21:12;19.50;;;14.95;;
55292;SDS011;41157;53.560;10.098;2022-07-22T00:23:38;16.95;;;15.13;;
55292;SDS011;41157;53.560;10.098;2022-07-22T00:26:04;19.55;;;15.32;;
55292;SDS011;41157;53.560;10.098;2022-07-22T00:28:30;17.80;;;15.63;;
55292;SDS011;41157;53.560;10.098;2022-07-22T00:30:56;18.08;;;15.68;;
55292;SDS011;41157;53.560;10.098;2022-07-22T00:33:23;17.58;;;15.43;;
55292;SDS011;41157;53.560;10.098;2022-07-22T00:35:49;16.88;;;15.18;;
55292;SDS011;41157;53.560;10.098;2022-07-22T00:38:15;16.38;;;14.18;;
55292;SDS011;41157;53.560;10.098;2022-07-22T00:40:41;17.98;;;15.02;;
55292;SDS011;41157;53.560;10.098;2022-07-22T00:43:07;23.00;;;16.73;;
55292;SDS011;41157;53.560;10.098;2022-07-22T00:45:33;24.75;;;17.50;;
55292;SDS011;41157;53.560;10.098;2022-07-22T00:47:59;24.48;;;17.48;;
55292;SDS011;41157;53.560;10.098;2022-07-22T00:50:25;24.65;;;17.20;;
55292;SDS011;41157;53.560;10.098;2022-07-22T00:52:51;23.45;;;15.85;;
55292;SDS011;41157;53.560;10.098;2022-07-22T00:55:18;21.15;;;15.82;;
55292;SDS011;41157;53.560;10.098;2022-07-22T00:57:44;18.70;;;13.05;;
55292;SDS011;41157;53.560;10.098;2022-07-22T01:00:11;13.75;;;11.02;;
55292;SDS011;41157;53.560;10.098;2022-07-22T01:02:38;13.68;;;9.68;;
55292;SDS011;41157;53.560;10.098;2022-07-22T01:05:04;9.90;;;8.88;;
55292;SDS011;41157;53.560;10.098;2022-07-22T01:07:31;9.52;;;8.40;;
55292;SDS011;41157;53.560;10.098;2022-07-22T01:09:57;12.25;;;8.93;;
55292;SDS011;41157;53.560;10.098;2022-07-22T01:12:23;9.18;;;7.32;;
55292;SDS011;41157;53.560;10.098;2022-07-22T01:14:49;9.75;;;6.93;;
55292;SDS011;41157;53.560;10.098;2022-07-22T01:17:15;11.02;;;6.18;;
55292;SDS011;41157;53.560;10.098;2022-07-22T01:19:42;6.22;;;4.90;;
55292;SDS011;41157;53.560;10.098;2022-07-22T01:22:08;5.07;;;3.80;;
55292;SDS011;41157;53.560;10.098;2022-07-22T01:24:34;4.63;;;3.33;;
55292;SDS011;41157;53.560;10.098;2022-07-22T01:27:01;2.78;;;2.50;;
55292;SDS011;41157;53.560;10.098;2022-07-22T01:29:27;2.47;;;2.25;;
55292;SDS011;41157;53.560;10.098;2022-07-22T01:31:53;2.08;;;1.65;;
55292;SDS011;41157;53.560;10.098;2022-07-22T01:34:19;1.67;;;1.58;;
55292;SDS011;41157;53.560;10.098;2022-07-22T01:36:45;3.63;;;1.60;;
55292;SDS011;41157;53.560;10.098;2022-07-22T01:39:10;2.40;;;1.20;;
55292;SDS011;41157;53.560;10.098;2022-07-22T01:41:37;1.63;;;1.40;;
55292;SDS011;41157;53.560;10.098;2022-07-22T01:44:03;3.30;;;1.95;;
55292;SDS011;41157;53.560;10.098;2022-07-22T01:46:29;5.45;;;2.55;;
55292;SDS011;41157;53.560;10.098;2022-07-22T01:48:55;4.68;;;2.30;;
55292;SDS011;41157;53.560;10.098;2022-07-22T01:51:21;3.15;;;2.40;;
55292;SDS011;41157;53.560;10.098;2022-07-22T01:53:47;5.68;;;2.83;;
55292;SDS011;41157;53.560;10.098;2022-07-22T01:56:13;5.47;;;3.50;;
55292;SDS011;41157;53.560;10.098;2022-07-22T01:58:39;6.55;;;3.25;;
55292;SDS011;41157;53.560;10.098;2022-07-22T02:01:06;6.68;;;3.65;;
55292;SDS011;41157;53.560;10.098;2022-07-22T02:03:32;7.57;;;4.15;;
55292;SDS011;41157;53.560;10.098;2022-07-22T02:05:58;7.70;;;4.78;;
55292;SDS011;41157;53.560;10.098;2022-07-22T02:08:24;6.30;;;4.53;;
55292;SDS011;41157;53.560;10.098;2022-07-22T02:10:50;6.95;;;4.60;;
55292;SDS011;41157;53.560;10.098;2022-07-22T02:13:16;8.63;;;4.80;;
55292;SDS011;41157;53.560;10.098;2022-07-22T02:15:42;8.80;;;5.88;;
55292;SDS011;41157;53.560;10.098;2022-07-22T02:20:37;11.13;;;6.15;;
55292;SDS011;41157;53.560;10.098;2022-07-22T02:23:03;12.88;;;6.00;;
55292;SDS011;41157;53.560;10.098;2022-07-22T02:25:29;9.45;;;6.20;;
55292;SDS011;41157;53.560;10.098;2022-07-22T02:27:55;12.88;;;6.03;;
55292;SDS011;41157;53.560;10.098;2022-07-22T02:30:21;11.20;;;5.90;;
55292;SDS011;41157;53.560;10.098;2022-07-22T02:32:47;12.90;;;5.45;;
55292;SDS011;41157;53.560;10.098;2022-07-22T02:35:13;12.02;;;5.72;;
55292;SDS011;41157;53.560;10.098;2022-07-22T02:37:39;11.30;;;5.32;;
55292;SDS011;41157;53.560;10.098;2022-07-22T02:40:05;14.57;;;5.43;;
55292;SDS011;41157;53.560;10.098;2022-07-22T02:42:32;10.63;;;4.93;;
55292;SDS011;41157;53.560;10.098;2022-07-22T02:44:58;7.22;;;4.53;;
55292;SDS011;41157;53.560;10.098;2022-07-22T02:47:25;8.05;;;4.40;;
55292;SDS011;41157;53.560;10.098;2022-07-22T02:49:51;11.00;;;4.40;;
55292;SDS011;41157;53.560;10.098;2022-07-22T02:52:17;10.85;;;3.83;;
55292;SDS011;41157;53.560;10.098;2022-07-22T02:54:43;11.23;;;4.47;;
55292;SDS011;41157;53.560;10.098;2022-07-22T02:57:08;6.97;;;3.72;;
55292;SDS011;41157;53.560;10.098;2022-07-22T02:59:35;10.85;;;3.60;;
55292;SDS011;41157;53.560;10.098;2022-07-22T03:02:01;7.57;;;3.35;;
55292;SDS011;41157;53.560;10.098;2022-07-22T03:04:27;7.05;;;3.40;;
55292;SDS011;41157;53.560;10.098;2022-07-22T03:06:53;9.68;;;3.42;;
55292;SDS011;41157;53.560;10.098;2022-07-22T03:09:19;7.28;;;2.83;;
55292;SDS011;41157;53.560;10.098;2022-07-22T03:11:45;9.60;;;3.13;;
55292;SDS011;41157;53.560;10.098;2022-07-22T03:14:11;9.80;;;3.00;;
55292;SDS011;41157;53.560;10.098;2022-07-22T03:16:37;10.43;;;3.13;;
55292;SDS011;41157;53.560;10.098;2022-07-22T03:19:03;8.02;;;2.80;;
55292;SDS011;41157;53.560;10.098;2022-07-22T03:21:29;12.15;;;3.30;;
55292;SDS011;41157;53.560;10.098;2022-07-22T03:23:55;9.65;;;2.63;;
55292;SDS011;41157;53.560;10.098;2022-07-22T03:26:21;9.70;;;2.67;;
55292;SDS011;41157;53.560;10.098;2022-07-22T03:28:48;6.50;;;2.60;;
55292;SDS011;41157;53.560;10.098;2022-07-22T03:31:14;10.60;;;2.63;;
55292;SDS011;41157;53.560;10.098;2022-07-22T03:33:40;12.32;;;3.00;;
55292;SDS011;41157;53.560;10.098;2022-07-22T03:36:06;12.63;;;2.50;;
55292;SDS011;41157;53.560;10.098;2022-07-22T03:38:33;9.30;;;3.00;;
55292;SDS011;41157;53.560;10.098;2022-07-22T03:40:59;10.77;;;3.42;;
55292;SDS011;41157;53.560;10.098;2022-07-22T03:43:25;13.43;;;2.55;;
55292;SDS011;41157;53.560;10.098;2022-07-22T03:45:51;9.85;;;3.10;;
55292;SDS011;41157;53.560;10.098;2022-07-22T03:48:17;6.78;;;2.50;;
55292;SDS011;41157;53.560;10.098;2022-07-22T03:50:43;6.03;;;2.83;;
55292;SDS011;41157;53.560;10.098;2022-07-22T03:53:09;6.15;;;2.08;;
55292;SDS011;41157;53.560;10.098;2022-07-22T03:55:35;8.38;;;2.70;;
55292;SDS011;41157;53.560;10.098;2022-07-22T03:58:01;6.90;;;2.40;;
55292;SDS011;41157;53.560;10.098;2022-07-22T04:00:27;8.63;;;2.72;;
55292;SDS011;41157;53.560;10.098;2022-07-22T04:02:53;5.30;;;2.30;;
55292;SDS011;41157;53.560;10.098;2022-07-22T04:05:19;6.38;;;2.70;;
55292;SDS011;41157;53.560;10.098;2022-07-22T04:07:45;8.00;;;2.17;;
55292;SDS011;41157;53.560;10.098;2022-07-22T04:10:11;5.63;;;1.67;;
55292;SDS011;41157;53.560;10.098;2022-07-22T04:12:37;5.78;;;2.20;;
55292;SDS011;41157;53.560;10.098;2022-07-22T04:15:04;5.35;;;2.10;;
55292;SDS011;41157;53.560;10.098;2022-07-22T04:17:31;4.57;;;2.35;;
55292;SDS011;41157;53.560;10.098;2022-07-22T04:19:57;8.38;;;2.67;;
55292;SDS011;41157;53.560;10.098;2022-07-22T04:22:24;8.43;;;2.40;;
55292;SDS011;41157;53.560;10.098;2022-07-22T04:24:50;6.80;;;2.70;;
55292;SDS011;41157;53.560;10.098;2022-07-22T04:27:16;7.32;;;2.20;;
55292;SDS011;41157;53.560;10.098;2022-07-22T04:29:42;5.65;;;2.33;;
55292;SDS011;41157;53.560;10.098;2022-07-22T04:32:08;6.82;;;2.40;;
55292;SDS011;41157;53.560;10.098;2022-07-22T04:34:34;7.00;;;2.45;;
55292;SDS011;41157;53.560;10.098;2022-07-22T04:37:00;5.25;;;2.58;;
55292;SDS011;41157;53.560;10.098;2022-07-22T04:39:26;8.13;;;2.30;;
55292;SDS011;41157;53.560;10.098;2022-07-22T04:41:52;7.78;;;2.28;;
55292;SDS011;41157;53.560;10.098;2022-07-22T04:44:18;5.72;;;2.33;;
55292;SDS011;41157;53.560;10.098;2022-07-22T04:46:44;6.05;;;2.38;;
55292;SDS011;41157;53.560;10.098;2022-07-22T04:49:10;5.72;;;2.65;;
55292;SDS011;41157;53.560;10.098;2022-07-22T04:51:36;6.57;;;2.08;;
55292;SDS011;41157;53.560;10.098;2022-07-22T04:54:02;7.47;;;2.60;;
55292;SDS011;41157;53.560;10.098;2022-07-22T04:56:28;9.57;;;2.28;;
55292;SDS011;41157;53.560;10.098;2022-07-22T04:58:54;6.55;;;2.50;;
55292;SDS011;41157;53.560;10.098;2022-07-22T05:01:20;3.88;;;1.90;;
55292;SDS011;41157;53.560;10.098;2022-07-22T05:03:46;3.95;;;2.00;;
55292;SDS011;41157;53.560;10.098;2022-07-22T05:06:12;7.72;;;1.77;;
55292;SDS011;41157;53.560;10.098;2022-07-22T05:08:38;4.97;;;2.20;;
55292;SDS011;41157;53.560;10.098;2022-07-22T05:11:04;6.82;;;2.10;;
55292;SDS011;41157;53.560;10.098;2022-07-22T05:13:30;7.93;;;2.10;;
55292;SDS011;41157;53.560;10.098;2022-07-22T05:15:56;3.97;;;1.77;;
55292;SDS011;41157;53.560;10.098;2022-07-22T05:18:22;5.10;;;1.80;;
55292;SDS011;41157;53.560;10.098;2022-07-22T05:20:48;4.75;;;2.00;;
55292;SDS011;41157;53.560;10.098;2022-07-22T05:23:14;4.30;;;2.05;;
55292;SDS011;41157;53.560;10.098;2022-07-22T05:25:40;3.60;;;2.20;;
55292;SDS011;41157;53.560;10.098;2022-07-22T05:28:06;5.55;;;2.17;;
55292;SDS011;41157;53.560;10.098;2022-07-22T05:30:32;6.10;;;2.42;;
55292;SDS011;41157;53.560;10.098;2022-07-22T05:32:58;5.07;;;2.60;;
55292;SDS011;41157;53.560;10.098;2022-07-22T05:35:24;5.53;;;2.00;;
55292;SDS011;41157;53.560;10.098;2022-07-22T05:37:50;4.78;;;2.50;;
55292;SDS011;41157;53.560;10.098;2022-07-22T05:40:16;7.05;;;2.35;;
55292;SDS011;41157;53.560;10.098;2022-07-22T05:42:42;5.43;;;2.17;;
55292;SDS011;41157;53.560;10.098;2022-07-22T05:45:08;9.60;;;2.50;;
55292;SDS011;41157;53.560;10.098;2022-07-22T05:47:34;8.95;;;2.72;;
55292;SDS011;41157;53.560;10.098;2022-07-22T05:50:00;12.15;;;2.22;;
55292;SDS011;41157;53.560;10.098;2022-07-22T05:52:26;9.80;;;2.60;;
55292;SDS011;41157;53.560;10.098;2022-07-22T05:54:52;7.10;;;2.85;;
55292;SDS011;41157;53.560;10.098;2022-07-22T05:57:18;9.98;;;2.72;;
55292;SDS011;41157;53.560;10.098;2022-07-22T05:59:44;9.23;;;2.78;;
55292;SDS011;41157;53.560;10.098;2022-07-22T06:02:10;5.45;;;2.38;;
55292;SDS011;41157;53.560;10.098;2022-07-22T06:04:36;5.00;;;2.13;;
55292;SDS011;41157;53.560;10.098;2022-07-22T06:07:02;8.75;;;3.20;;
55292;SDS011;41157;53.560;10.098;2022-07-22T06:09:31;7.85;;;2.75;;
55292;SDS011;41157;53.560;10.098;2022-07-22T06:11:57;5.07;;;2.47;;
55292;SDS011;41157;53.560;10.098;2022-07-22T06:14:23;13.05;;;3.00;;
55292;SDS011;41157;53.560;10.098;2022-07-22T06:16:50;7.03;;;2.45;;
55292;SDS011;41157;53.560;10.098;2022-07-22T06:19:16;10.18;;;3.03;;
55292;SDS011;41157;53.560;10.098;2022-07-22T06:21:42;8.65;;;3.25;;
55292;SDS011;41157;53.560;10.098;2022-07-22T06:24:09;11.13;;;3.08;;
55292;SDS011;41157;53.560;10.098;2022-07-22T06:26:35;13.75;;;3.45;;
55292;SDS011;41157;53.560;10.098;2022-07-22T06:29:01;8.93;;;3.15;;
55292;SDS011;41157;53.560;10.098;2022-07-22T06:31:27;13.60;;;3.28;;
55292;SDS011;41157;53.560;10.098;2022-07-22T06:33:53;9.35;;;3.22;;
55292;SDS011;41157;53.560;10.098;2022-07-22T06:36:19;10.90;;;2.95;;
55292;SDS011;41157;53.560;10.098;2022-07-22T06:38:46;10.88;;;3.03;;
55292;SDS011;41157;53.560;10.098;2022-07-22T06:41:12;9.43;;;4.05;;
55292;SDS011;41157;53.560;10.098;2022-07-22T06:43:38;15.55;;;3.30;;
55292;SDS011;41157;53.560;10.098;2022-07-22T06:46:05;15.18;;;3.33;;
55292;SDS011;41157;53.560;10.098;2022-07-22T06:48:31;13.18;;;3.20;;
55292;SDS011;41157;53.560;10.098;2022-07-22T06:50:57;11.18;;;2.83;;
55292;SDS011;41157;53.560;10.098;2022-07-22T06:53:22;12.63;;;3.35;;
55292;SDS011;41157;53.560;10.098;2022-07-22T06:55:48;14.85;;;3.35;;
55292;SDS011;41157;53.560;10.098;2022-07-22T06:58:14;8.43;;;2.90;;
55292;SDS011;41157;53.560;10.098;2022-07-22T07:00:40;10.65;;;3.00;;
55292;SDS011;41157;53.560;10.098;2022-07-22T07:03:06;8.50;;;2.63;;
55292;SDS011;41157;53.560;10.098;2022-07-22T07:05:33;13.18;;;3.38;;
55292;SDS011;41157;53.560;10.098;2022-07-22T07:08:00;12.95;;;3.35;;
55292;SDS011;41157;53.560;10.098;2022-07-22T07:10:26;10.02;;;3.08;;
55292;SDS011;41157;53.560;10.098;2022-07-22T07:12:55;11.95;;;3.55;;
55292;SDS011;41157;53.560;10.098;2022-07-22T07:15:21;19.23;;;3.83;;
55292;SDS011;41157;53.560;10.098;2022-07-22T07:17:47;11.25;;;2.92;;
55292;SDS011;41157;53.560;10.098;2022-07-22T07:20:14;7.70;;;3.22;;
55292;SDS011;41157;53.560;10.098;2022-07-22T07:22:40;10.02;;;3.05;;
55292;SDS011;41157;53.560;10.098;2022-07-22T07:25:07;11.52;;;2.92;;
55292;SDS011;41157;53.560;10.098;2022-07-22T07:27:33;16.08;;;3.45;;
55292;SDS011;41157;53.560;10.098;2022-07-22T07:30:00;9.60;;;2.90;;
55292;SDS011;41157;53.560;10.098;2022-07-22T07:32:26;10.30;;;2.97;;
55292;SDS011;41157;53.560;10.098;2022-07-22T07:34:52;9.52;;;3.00;;
55292;SDS011;41157;53.560;10.098;2022-07-22T07:37:19;10.57;;;3.45;;
55292;SDS011;41157;53.560;10.098;2022-07-22T07:39:45;11.85;;;2.60;;
55292;SDS011;41157;53.560;10.098;2022-07-22T07:42:11;9.77;;;3.08;;
55292;SDS011;41157;53.560;10.098;2022-07-22T07:44:37;16.42;;;3.20;;
55292;SDS011;41157;53.560;10.098;2022-07-22T07:47:03;6.68;;;2.25;;
55292;SDS011;41157;53.560;10.098;2022-07-22T07:49:30;10.68;;;2.80;;
55292;SDS011;41157;53.560;10.098;2022-07-22T07:51:56;10.80;;;3.08;;
55292;SDS011;41157;53.560;10.098;2022-07-22T07:54:22;9.98;;;3.08;;
55292;SDS011;41157;53.560;10.098;2022-07-22T07:56:48;10.75;;;2.70;;
55292;SDS011;41157;53.560;10.098;2022-07-22T07:59:14;7.55;;;2.85;;
55292;SDS011;41157;53.560;10.098;2022-07-22T08:01:41;12.88;;;3.08;;
55292;SDS011;41157;53.560;10.098;2022-07-22T08:04:08;16.05;;;2.92;;
55292;SDS011;41157;53.560;10.098;2022-07-22T08:06:34;10.38;;;2.97;;
55292;SDS011;41157;53.560;10.098;2022-07-22T08:09:00;9.73;;;2.70;;
55292;SDS011;41157;53.560;10.098;2022-07-22T08:11:26;10.63;;;2.75;;
55292;SDS011;41157;53.560;10.098;2022-07-22T08:13:52;9.95;;;2.72;;
55292;SDS011;41157;53.560;10.098;2022-07-22T08:16:18;9.95;;;3.17;;
55292;SDS011;41157;53.560;10.098;2022-07-22T08:18:43;13.25;;;2.80;;
55292;SDS011;41157;53.560;10.098;2022-07-22T08:21:09;10.10;;;2.60;;
55292;SDS011;41157;53.560;10.098;2022-07-22T08:23:36;9.13;;;2.75;;
55292;SDS011;41157;53.560;10.098;2022-07-22T08:26:02;13.15;;;2.83;;
55292;SDS011;41157;53.560;10.098;2022-07-22T08:28:28;24.50;;;14.98;;
55292;SDS011;41157;53.560;10.098;2022-07-22T08:30:54;16.70;;;7.00;;
55292;SDS011;41157;53.560;10.098;2022-07-22T08:33:20;20.05;;;8.52;;
55292;SDS011;41157;53.560;10.098;2022-07-22T08:35:46;21.05;;;11.32;;
55292;SDS011;41157;53.560;10.098;2022-07-22T08:38:12;12.73;;;2.90;;
55292;SDS011;41157;53.560;10.098;2022-07-22T08:40:38;11.63;;;2.70;;
55292;SDS011;41157;53.560;10.098;2022-07-22T08:43:04;7.68;;;2.65;;
55292;SDS011;41157;53.560;10.098;2022-07-22T08:45:31;13.80;;;2.63;;
55292;SDS011;41157;53.560;10.098;2022-07-22T08:47:58;10.13;;;3.13;;
55292;SDS011;41157;53.560;10.098;2022-07-22T08:50:27;5.65;;;2.33;;
55292;SDS011;41157;53.560;10.098;2022-07-22T08:52:53;6.35;;;2.03;;
55292;SDS011;41157;53.560;10.098;2022-07-22T08:55:19;11.70;;;2.15;;
55292;SDS011;41157;53.560;10.098;2022-07-22T08:57:46;8.25;;;2.33;;
55292;SDS011;41157;53.560;10.098;2022-07-22T09:00:13;9.45;;;1.90;;
55292;SDS011;41157;53.560;10.098;2022-07-22T09:02:41;6.60;;;1.98;;
55292;SDS011;41157;53.560;10.098;2022-07-22T09:05:08;9.70;;;2.20;;
55292;SDS011;41157;53.560;10.098;2022-07-22T09:07:36;6.97;;;2.30;;
55292;SDS011;41157;53.560;10.098;2022-07-22T09:10:03;7.45;;;2.42;;
55292;SDS011;41157;53.560;10.098;2022-07-22T09:12:29;9.13;;;2.10;;
55292;SDS011;41157;53.560;10.098;2022-07-22T09:14:58;7.00;;;2.03;;
55292;SDS011;41157;53.560;10.098;2022-07-22T09:17:28;10.82;;;2.30;;
55292;SDS011;41157;53.560;10.098;2022-07-22T09:19:55;10.63;;;2.28;;
55292;SDS011;41157;53.560;10.098;2022-07-22T09:25:16;21.65;;;11.73;;
55292;SDS011;41157;53.560;10.098;2022-07-22T09:27:43;12.98;;;2.13;;
55292;SDS011;41157;53.560;10.098;2022-07-22T09:30:17;4.00;;;2.10;;
55292;SDS011;41157;53.560;10.098;2022-07-22T09:32:43;11.63;;;2.67;;
55292;SDS011;41157;53.560;10.098;2022-07-22T09:35:11;9.05;;;2.08;;
55292;SDS011;41157;53.560;10.098;2022-07-22T09:37:42;6.85;;;1.60;;
55292;SDS011;41157;53.560;10.098;2022-07-22T09:40:13;7.47;;;2.25;;
55292;SDS011;41157;53.560;10.098;2022-07-22T09:43:14;6.40;;;1.80;;
55292;SDS011;41157;53.560;10.098;2022-07-22T09:45:36;5.38;;;2.15;;
55292;SDS011;41157;53.560;10.098;2022-07-22T09:48:09;9.15;;;2.03;;
55292;SDS011;41157;53.560;10.098;2022-07-22T09:50:35;6.63;;;1.92;;
55292;SDS011;41157;53.560;10.098;2022-07-22T09:53:01;6.50;;;1.88;;
55292;SDS011;41157;53.560;10.098;2022-07-22T09:55:27;5.97;;;2.08;;
55292;SDS011;41157;53.560;10.098;2022-07-22T09:57:54;4.90;;;1.77;;
55292;SDS011;41157;53.560;10.098;2022-07-22T10:00:23;4.55;;;2.03;;
55292;SDS011;41157;53.560;10.098;2022-07-22T10:02:51;7.45;;;1.98;;
55292;SDS011;41157;53.560;10.098;2022-07-22T10:05:22;6.93;;;2.30;;
55292;SDS011;41157;53.560;10.098;2022-07-22T10:07:48;3.92;;;1.67;;
55292;SDS011;41157;53.560;10.098;2022-07-22T10:10:18;6.38;;;2.00;;
55292;SDS011;41157;53.560;10.098;2022-07-22T10:12:45;7.00;;;2.10;;
55292;SDS011;41157;53.560;10.098;2022-07-22T10:15:13;6.32;;;1.85;;
55292;SDS011;41157;53.560;10.098;2022-07-22T10:17:44;5.85;;;2.10;;
55292;SDS011;41157;53.560;10.098;2022-07-22T10:20:10;4.50;;;1.73;;
55292;SDS011;41157;53.560;10.098;2022-07-22T10:25:10;4.65;;;1.45;;
55292;SDS011;41157;53.560;10.098;2022-07-22T10:27:46;6.30;;;1.75;;
55292;SDS011;41157;53.560;10.098;2022-07-22T10:30:13;5.32;;;1.90;;
55292;SDS011;41157;53.560;10.098;2022-07-22T10:32:39;7.07;;;1.83;;
55292;SDS011;41157;53.560;10.098;2022-07-22T10:40:09;7.55;;;2.25;;
55292;SDS011;41157;53.560;10.098;2022-07-22T10:45:21;5.18;;;1.80;;
55292;SDS011;41157;53.560;10.098;2022-07-22T10:47:51;8.10;;;2.00;;
55292;SDS011;41157;53.560;10.098;2022-07-22T10:53:06;4.35;;;1.75;;
55292;SDS011;41157;53.560;10.098;2022-07-22T10:55:33;7.63;;;1.90;;
55292;SDS011;41157;53.560;10.098;2022-07-22T10:57:59;5.20;;;1.70;;
55292;SDS011;41157;53.560;10.098;2022-07-22T11:00:26;5.15;;;2.00;;
55292;SDS011;41157;53.560;10.098;2022-07-22T11:02:52;4.97;;;1.67;;
55292;SDS011;41157;53.560;10.098;2022-07-22T11:05:25;5.25;;;2.22;;
55292;SDS011;41157;53.560;10.098;2022-07-22T11:07:51;9.65;;;2.22;;
55292;SDS011;41157;53.560;10.098;2022-07-22T11:10:18;5.35;;;2.00;;
55292;SDS011;41157;53.560;10.098;2022-07-22T11:12:45;11.27;;;2.05;;
55292;SDS011;41157;53.560;10.098;2022-07-22T11:15:11;10.90;;;1.70;;
55292;SDS011;41157;53.560;10.098;2022-07-22T11:17:37;10.73;;;1.80;;
55292;SDS011;41157;53.560;10.098;2022-07-22T11:20:05;8.85;;;2.53;;
55292;SDS011;41157;53.560;10.098;2022-07-22T11:22:37;10.57;;;2.20;;
55292;SDS011;41157;53.560;10.098;2022-07-22T11:25:04;8.30;;;2.33;;
55292;SDS011;41157;53.560;10.098;2022-07-22T11:27:31;5.90;;;1.95;;
55292;SDS011;41157;53.560;10.098;2022-07-22T11:29:57;6.50;;;1.80;;
55292;SDS011;41157;53.560;10.098;2022-07-22T11:32:24;7.70;;;1.98;;
55292;SDS011;41157;53.560;10.098;2022-07-22T11:34:50;8.55;;;2.00;;
55292;SDS011;41157;53.560;10.098;2022-07-22T11:37:21;4.10;;;1.77;;
55292;SDS011;41157;53.560;10.098;2022-07-22T11:39:51;6.65;;;1.95;;
55292;SDS011;41157;53.560;10.098;2022-07-22T11:42:17;8.82;;;2.05;;
55292;SDS011;41157;53.560;10.098;2022-07-22T11:44:43;5.68;;;1.80;;
55292;SDS011;41157;53.560;10.098;2022-07-22T11:47:09;9.20;;;2.28;;
55292;SDS011;41157;53.560;10.098;2022-07-22T11:49:36;5.82;;;1.48;;
55292;SDS011;41157;53.560;10.098;2022-07-22T11:52:03;6.65;;;1.70;;
55292;SDS011;41157;53.560;10.098;2022-07-22T11:54:29;4.05;;;1.63;;
55292;SDS011;41157;53.560;10.098;2022-07-22T11:56:55;6.80;;;1.60;;
55292;SDS011;41157;53.560;10.098;2022-07-22T11:59:21;6.10;;;1.90;;
55292;SDS011;41157;53.560;10.098;2022-07-22T12:01:47;7.20;;;2.15;;
55292;SDS011;41157;53.560;10.098;2022-07-22T12:04:18;6.50;;;2.05;;
55292;SDS011;41157;53.560;10.098;2022-07-22T12:06:44;6.50;;;1.83;;
55292;SDS011;41157;53.560;10.098;2022-07-22T12:09:14;4.40;;;2.08;;
55292;SDS011;41157;53.560;10.098;2022-07-22T12:11:42;12.55;;;7.85;;
55292;SDS011;41157;53.560;10.098;2022-07-22T12:14:10;9.18;;;2.10;;
55292;SDS011;41157;53.560;10.098;2022-07-22T12:16:36;9.65;;;1.85;;
55292;SDS011;41157;53.560;10.098;2022-07-22T12:19:07;13.05;;;1.90;;
55292;SDS011;41157;53.560;10.098;2022-07-22T12:21:33;6.30;;;1.75;;
55292;SDS011;41157;53.560;10.098;2022-07-22T12:24:06;4.45;;;2.03;;
55292;SDS011;41157;53.560;10.098;2022-07-22T12:26:41;5.07;;;2.03;;
55292;SDS011;41157;53.560;10.098;2022-07-22T12:29:56;5.68;;;1.75;;
55292;SDS011;41157;53.560;10.098;2022-07-22T12:32:01;3.80;;;1.60;;
55292;SDS011;41157;53.560;10.098;2022-07-22T12:37:00;7.38;;;1.90;;
55292;SDS011;41157;53.560;10.098;2022-07-22T12:39:27;7.25;;;1.45;;
55292;SDS011;41157;53.560;10.098;2022-07-22T12:41:54;3.47;;;1.70;;
55292;SDS011;41157;53.560;10.098;2022-07-22T12:44:26;8.23;;;1.80;;
55292;SDS011;41157;53.560;10.098;2022-07-22T12:46:53;5.88;;;1.85;;
55292;SDS011;41157;53.560;10.098;2022-07-22T12:49:23;7.30;;;1.50;;
55292;SDS011;41157;53.560;10.098;2022-07-22T12:52:06;6.28;;;2.00;;
55292;SDS011;41157;53.560;10.098;2022-07-22T12:54:32;6.32;;;1.90;;
55292;SDS011;41157;53.560;10.098;2022-07-22T12:56:59;5.85;;;1.67;;
55292;SDS011;41157;53.560;10.098;2022-07-22T12:59:25;7.15;;;1.73;;
55292;SDS011;41157;53.560;10.098;2022-07-22T13:01:51;7.18;;;1.67;;
55292;SDS011;41157;53.560;10.098;2022-07-22T13:04:17;6.72;;;1.77;;
55292;SDS011;41157;53.560;10.098;2022-07-22T13:06:43;3.50;;;1.60;;
55292;SDS011;41157;53.560;10.098;2022-07-22T13:09:09;5.85;;;2.13;;
55292;SDS011;41157;53.560;10.098;2022-07-22T13:11:35;4.90;;;1.52;;
55292;SDS011;41157;53.560;10.098;2022-07-22T13:14:04;5.07;;;1.77;;
55292;SDS011;41157;53.560;10.098;2022-07-22T13:16:30;3.10;;;1.50;;
55292;SDS011;41157;53.560;10.098;2022-07-22T13:18:56;4.72;;;1.60;;
55292;SDS011;41157;53.560;10.098;2022-07-22T13:21:22;4.10;;;1.63;;
55292;SDS011;41157;53.560;10.098;2022-07-22T13:23:48;4.97;;;1.85;;
55292;SDS011;41157;53.560;10.098;2022-07-22T13:26:14;6.28;;;1.63;;
55292;SDS011;41157;53.560;10.098;2022-07-22T13:28:40;3.75;;;1.48;;
55292;SDS011;41157;53.560;10.098;2022-07-22T13:31:07;3.40;;;1.73;;
55292;SDS011;41157;53.560;10.098;2022-07-22T13:33:33;7.32;;;1.80;;
55292;SDS011;41157;53.560;10.098;2022-07-22T13:36:00;4.38;;;1.60;;
55292;SDS011;41157;53.560;10.098;2022-07-22T13:38:26;3.10;;;1.50;;
55292;SDS011;41157;53.560;10.098;2022-07-22T13:40:52;3.78;;;1.73;;
55292;SDS011;41157;53.560;10.098;2022-07-22T13:43:19;5.68;;;1.40;;
55292;SDS011;41157;53.560;10.098;2022-07-22T13:45:45;5.05;;;1.73;;
55292;SDS011;41157;53.560;10.098;2022-07-22T13:48:11;11.43;;;2.15;;
55292;SDS011;41157;53.560;10.098;2022-07-22T13:50:37;7.18;;;1.67;;
55292;SDS011;41157;53.560;10.098;2022-07-22T13:53:03;4.70;;;1.83;;
55292;SDS011;41157;53.560;10.098;2022-07-22T13:55:29;5.75;;;2.00;;
55292;SDS011;41157;53.560;10.098;2022-07-22T13:57:55;4.85;;;2.13;;
55292;SDS011;41157;53.560;10.098;2022-07-22T14:00:22;6.65;;;2.20;;
55292;SDS011;41157;53.560;10.098;2022-07-22T14:02:48;6.45;;;1.88;;
55292;SDS011;41157;53.560;10.098;2022-07-22T14:05:14;11.05;;;6.13;;
55292;SDS011;41157;53.560;10.098;2022-07-22T14:07:40;8.70;;;5.57;;
55292;SDS011;41157;53.560;10.098;2022-07-22T14:10:07;4.65;;;1.73;;
55292;SDS011;41157;53.560;10.098;2022-07-22T14:12:33;4.82;;;1.88;;
55292;SDS011;41157;53.560;10.098;2022-07-22T14:14:59;3.75;;;1.70;;
55292;SDS011;41157;53.560;10.098;2022-07-22T14:17:25;5.68;;;1.88;;
55292;SDS011;41157;53.560;10.098;2022-07-22T14:19:51;7.43;;;1.75;;
55292;SDS011;41157;53.560;10.098;2022-07-22T14:22:17;5.57;;;1.73;;
55292;SDS011;41157;53.560;10.098;2022-07-22T14:24:43;10.15;;;1.58;;
55292;SDS011;41157;53.560;10.098;2022-07-22T14:27:09;7.13;;;1.60;;
55292;SDS011;41157;53.560;10.098;2022-07-22T14:29:35;4.05;;;1.60;;
55292;SDS011;41157;53.560;10.098;2022-07-22T14:32:02;6.53;;;1.75;;
55292;SDS011;41157;53.560;10.098;2022-07-22T14:34:28;8.32;;;1.50;;
55292;SDS011;41157;53.560;10.098;2022-07-22T14:36:54;5.95;;;1.58;;
55292;SDS011;41157;53.560;10.098;2022-07-22T14:39:20;4.35;;;1.60;;
55292;SDS011;41157;53.560;10.098;2022-07-22T14:41:46;5.75;;;1.52;;
55292;SDS011;41157;53.560;10.098;2022-07-22T14:44:12;4.55;;;1.67;;
55292;SDS011;41157;53.560;10.098;2022-07-22T14:46:38;3.55;;;1.48;;